< < Back
Terminal Aerodrome Forecast


Current Version              Previous Versions:   1  2  3  4  5  6  7  8  9  

Terminal Aerodrome Forecast

474
FTUS42 KMLB 300800 AAA
TAFMCO
TAF AMD
KMCO 300850Z 3009/3106 VRB03KT P6SM SCT100
      TEMPO 3010/3012 5SM BR
     FM301500 32005KT P6SM FEW040 SCT250
     FM302200 30006KT P6SM VCSH SCT040 SCT250
     FM310200 VRB03KT P6SM FEW040 BKN250=

Latest METAR

946
SAUS70 KWBC 301700 RRC
MTRMCO
METAR KMCO 301653Z VRB03KT 10SM SCT043 SCT120 BKN250 28/18 A2995 RMK AO2
SLP141 T02830183


USA.gov is the U.S. government's official web portal to all federal, state and local government web resources and services.